createdAt,value
2024-05-09T00:00:22.050Z,101333.59
2024-05-09T00:02:53.159Z,101328.63
2024-05-09T00:05:19.991Z,101321.06
2024-05-09T00:07:46.834Z,101329.69
2024-05-09T00:10:22.377Z,101330.00
2024-05-09T00:12:55.855Z,101319.41
2024-05-09T00:15:22.469Z,101326.25
2024-05-09T00:17:49.463Z,101339.97
2024-05-09T00:20:20.657Z,101333.72
2024-05-09T00:22:54.514Z,101335.25
2024-05-09T00:25:21.186Z,101326.66
2024-05-09T00:27:47.808Z,101334.94
2024-05-09T00:30:21.449Z,101320.78
2024-05-09T00:32:55.156Z,101326.97
2024-05-09T00:35:22.081Z,101323.63
2024-05-09T00:37:48.991Z,101324.16
2024-05-09T00:40:22.892Z,101320.25
2024-05-09T00:42:57.548Z,101315.59
2024-05-09T00:45:24.201Z,101319.94
2024-05-09T00:47:51.297Z,101316.25
2024-05-09T00:50:22.858Z,101318.34
2024-05-09T00:52:56.709Z,101315.13
2024-05-09T00:55:23.926Z,101312.88
2024-05-09T00:57:51.065Z,101314.84
2024-05-09T01:00:26.625Z,101314.63
2024-05-09T01:02:58.691Z,101313.53
2024-05-09T01:05:25.509Z,101320.91
2024-05-09T01:07:52.250Z,101310.88
2024-05-09T01:10:27.464Z,101310.88
2024-05-09T01:12:58.699Z,101319.34
2024-05-09T01:15:25.393Z,101313.78
2024-05-09T01:17:55.507Z,101314.56
2024-05-09T01:20:31.827Z,101319.94
2024-05-09T01:23:07.490Z,101315.88
2024-05-09T01:25:35.349Z,101307.31
2024-05-09T01:28:02.115Z,101316.75
2024-05-09T01:30:34.420Z,101308.88
2024-05-09T01:33:04.160Z,101321.56
2024-05-09T01:35:31.295Z,101313.78
2024-05-09T01:37:58.063Z,101317.97
2024-05-09T01:40:33.613Z,101323.50
2024-05-09T01:43:04.894Z,101305.72
2024-05-09T01:45:31.753Z,101306.09
2024-05-09T01:47:58.912Z,101305.00
2024-05-09T01:50:37.058Z,101313.38
2024-05-09T01:53:07.823Z,101305.34
2024-05-09T01:55:34.659Z,101298.56
2024-05-09T01:58:01.371Z,101308.97
2024-05-09T02:00:37.891Z,101307.34
2024-05-09T02:03:15.694Z,101303.00
2024-05-09T02:05:46.181Z,101305.66
2024-05-09T02:08:15.083Z,101308.16
2024-05-09T02:10:42.147Z,101300.75
2024-05-09T02:13:09.361Z,101301.13
2024-05-09T02:15:36.216Z,101303.97
2024-05-09T02:18:08.702Z,101307.53
2024-05-09T02:20:38.543Z,101301.03
2024-05-09T02:23:06.576Z,101306.28
2024-05-09T02:25:33.835Z,101301.75
2024-05-09T02:28:00.671Z,101306.63
2024-05-09T02:30:37.826Z,101314.31
2024-05-09T02:33:09.395Z,101303.50
2024-05-09T02:35:37.276Z,101311.53
2024-05-09T02:38:04.407Z,101309.59
2024-05-09T02:40:37.406Z,101309.88
2024-05-09T02:43:06.310Z,101317.09
2024-05-09T02:45:33.197Z,101311.09
2024-05-09T02:48:00.528Z,101308.97
2024-05-09T02:50:34.484Z,101302.03
2024-05-09T02:53:06.219Z,101312.56
2024-05-09T02:55:33.184Z,101303.00
2024-05-09T02:57:59.979Z,101309.28
2024-05-09T03:00:35.137Z,101300.81
2024-05-09T03:03:11.778Z,101312.09
2024-05-09T03:05:42.130Z,101309.94
2024-05-09T03:08:09.168Z,101304.53
2024-05-09T03:10:38.324Z,101309.22
2024-05-09T03:13:11.717Z,101308.06
2024-05-09T03:15:38.599Z,101308.22
2024-05-09T03:18:06.753Z,101307.75
2024-05-09T03:20:35.670Z,101300.22
2024-05-09T03:23:05.026Z,101310.34
2024-05-09T03:25:32.186Z,101308.72
2024-05-09T03:27:59.279Z,101321.88
2024-05-09T03:30:38.679Z,101320.47
2024-05-09T03:33:15.314Z,101317.66
2024-05-09T03:35:46.184Z,101319.59
2024-05-09T03:38:13.051Z,101324.75
2024-05-09T03:40:47.233Z,101320.59
2024-05-09T03:43:14.329Z,101321.25
2024-05-09T03:45:42.380Z,101322.09
2024-05-09T03:48:09.172Z,101322.78
2024-05-09T03:50:36.959Z,101319.81
2024-05-09T03:53:04.531Z,101315.22
2024-05-09T03:55:31.972Z,101315.22
2024-05-09T03:57:58.833Z,101318.56
2024-05-09T04:00:31.759Z,101321.16
2024-05-09T04:03:06.102Z,101318.59
2024-05-09T04:05:34.475Z,101328.72
2024-05-09T04:08:01.569Z,101318.28
2024-05-09T04:10:33.222Z,101318.28
2024-05-09T04:13:01.666Z,101322.56
2024-05-09T04:15:28.389Z,101322.13
2024-05-09T04:17:55.683Z,101329.00
2024-05-09T04:20:33.116Z,101315.84
2024-05-09T04:23:12.341Z,101324.53
2024-05-09T04:25:44.374Z,101324.69
2024-05-09T04:28:11.639Z,101328.09
2024-05-09T04:30:40.862Z,101333.19
2024-05-09T04:33:11.944Z,101327.78
2024-05-09T04:35:42.063Z,101329.50
2024-05-09T04:38:09.119Z,101333.84
2024-05-09T04:40:37.245Z,101339.69
2024-05-09T04:43:14.443Z,101337.31
2024-05-09T04:45:41.587Z,101336.25
2024-05-09T04:48:08.972Z,101330.81
2024-05-09T04:50:38.577Z,101331.59
2024-05-09T04:53:11.280Z,101333.19
2024-05-09T04:55:38.905Z,101331.81
2024-05-09T04:58:08.531Z,101344.97
2024-05-09T05:00:37.515Z,101341.03
2024-05-09T05:03:08.398Z,101334.25
2024-05-09T05:05:40.187Z,101331.25
2024-05-09T05:08:18.397Z,101338.94
2024-05-09T05:10:47.063Z,101344.38
2024-05-09T05:13:22.272Z,101344.69
2024-05-09T05:15:52.468Z,101342.03
2024-05-09T05:18:19.742Z,101334.91
2024-05-09T05:20:46.955Z,101346.63
2024-05-09T05:23:15.831Z,101344.09
2024-05-09T05:25:42.868Z,101342.94
2024-05-09T05:28:10.160Z,101341.00
2024-05-09T05:30:38.387Z,101354.41
2024-05-09T05:33:06.260Z,101349.78
2024-05-09T05:35:34.284Z,101340.09
2024-05-09T05:38:01.218Z,101341.84
2024-05-09T05:40:35.416Z,101343.59
2024-05-09T05:43:05.537Z,101343.34
2024-05-09T05:45:32.867Z,101355.22
2024-05-09T05:48:00.285Z,101353.53
2024-05-09T05:50:32.983Z,101354.41
2024-05-09T05:53:03.630Z,101358.69
2024-05-09T05:55:30.375Z,101364.13
2024-05-09T05:57:57.225Z,101358.19
2024-05-09T06:00:29.687Z,101360.22
2024-05-09T06:03:04.707Z,101372.03
2024-05-09T06:05:31.881Z,101367.69
2024-05-09T06:07:58.887Z,101366.84
2024-05-09T06:10:30.204Z,101363.78
2024-05-09T06:13:04.932Z,101370.88
2024-05-09T06:15:31.640Z,101364.06
2024-05-09T06:17:58.601Z,101368.03
2024-05-09T06:20:34.602Z,101362.16
2024-05-09T06:23:04.523Z,101369.41
2024-05-09T06:25:31.773Z,101372.47
2024-05-09T06:28:00.401Z,101359.56
2024-05-09T06:30:36.654Z,101373.50
2024-05-09T06:33:07.591Z,101370.00
2024-05-09T06:35:34.715Z,101369.13
2024-05-09T06:38:01.740Z,101383.25
2024-05-09T06:40:36.595Z,101374.19
2024-05-09T06:43:10.925Z,101368.44
2024-05-09T06:45:39.491Z,101362.53
2024-05-09T06:48:07.194Z,101367.41
2024-05-09T06:50:37.857Z,101367.19
2024-05-09T06:53:06.206Z,101370.59
2024-05-09T06:55:33.049Z,101360.47
2024-05-09T06:57:59.823Z,101370.00
2024-05-09T07:00:34.797Z,101372.97
2024-05-09T07:03:15.484Z,101373.97
2024-05-09T07:05:44.697Z,101377.34
2024-05-09T07:08:13.442Z,101374.53
2024-05-09T07:10:40.312Z,101371.97
2024-05-09T07:13:11.036Z,101369.75
2024-05-09T07:15:38.278Z,101362.66
2024-05-09T07:18:17.314Z,101368.28
2024-05-09T07:20:46.341Z,101372.88
2024-05-09T07:23:13.567Z,101370.81
2024-05-09T07:25:41.322Z,101373.44
2024-05-09T07:28:13.661Z,101366.56
2024-05-09T07:30:40.398Z,101364.66
2024-05-09T07:33:07.218Z,101354.25
2024-05-09T07:35:34.728Z,101356.84
2024-05-09T07:38:01.598Z,101358.69
2024-05-09T07:40:34.909Z,101354.41
2024-05-09T07:43:04.631Z,101353.00
2024-05-09T07:45:48.010Z,101358.53
2024-05-09T07:53:39.307Z,101352.72
2024-05-09T07:56:10.173Z,101351.69
2024-05-09T07:58:38.834Z,101344.63
2024-05-09T08:01:05.837Z,101345.47
2024-05-09T08:03:34.147Z,101342.75
2024-05-09T08:06:01.175Z,101349.06
2024-05-09T08:08:27.809Z,101351.25
2024-05-09T08:10:54.545Z,101346.22
2024-05-09T08:13:21.428Z,101346.28
2024-05-09T08:15:48.745Z,101344.19
2024-05-09T08:18:15.703Z,101342.94
2024-05-09T08:20:42.574Z,101332.72
2024-05-09T08:23:10.840Z,101336.09
2024-05-09T08:25:38.552Z,101348.59
2024-05-09T08:28:05.665Z,101339.34
2024-05-09T08:30:36.919Z,101341.66
2024-05-09T08:33:06.365Z,101338.06
2024-05-09T08:35:33.940Z,101333.41
2024-05-09T08:38:05.192Z,101332.22
2024-05-09T08:40:35.835Z,101334.75
2024-05-09T08:43:09.024Z,101332.81
2024-05-09T08:45:38.802Z,101325.44
2024-05-09T08:48:08.230Z,101328.50
2024-05-09T08:50:39.180Z,101319.75
2024-05-09T08:53:08.262Z,101324.25
2024-05-09T08:55:40.079Z,101315.97
2024-05-09T08:58:12.492Z,101318.59
2024-05-09T09:00:41.964Z,101307.81
2024-05-09T09:03:09.936Z,101315.44
2024-05-09T09:05:39.543Z,101308.59
2024-05-09T09:08:08.739Z,101318.81
2024-05-09T09:10:36.896Z,101316.09
2024-05-09T09:13:05.137Z,101319.88
2024-05-09T09:15:32.685Z,101317.78
2024-05-09T09:18:00.857Z,101313.38
2024-05-09T09:20:35.482Z,101300.81
2024-05-09T09:23:04.108Z,101310.53
2024-05-09T09:25:31.028Z,101310.16
2024-05-09T09:27:58.525Z,101314.38
2024-05-09T09:30:35.238Z,101314.69
2024-05-09T09:33:13.574Z,101302.59
2024-05-09T09:35:42.116Z,101310.16
2024-05-09T09:38:10.447Z,101315.69
2024-05-09T09:40:45.130Z,101310.66
2024-05-09T09:43:21.956Z,101310.50
2024-05-09T09:45:51.437Z,101294.44
2024-05-09T09:48:20.272Z,101298.28
2024-05-09T09:50:48.406Z,101302.53
2024-05-09T09:53:16.610Z,101289.94
2024-05-09T09:55:43.690Z,101299.53
2024-05-09T09:58:13.898Z,101280.00
2024-05-09T10:00:41.971Z,101282.44
2024-05-09T10:03:08.812Z,101278.03
2024-05-09T10:05:36.092Z,101279.88
2024-05-09T10:08:07.212Z,101273.91
2024-05-09T10:10:35.968Z,101271.88
2024-05-09T10:13:07.215Z,101277.03
2024-05-09T10:15:51.281Z,101276.25
2024-05-09T10:18:29.551Z,101278.91
2024-05-09T10:21:18.539Z,101273.13
2024-05-09T10:24:00.239Z,101275.31
2024-05-09T10:26:37.135Z,101274.66
2024-05-09T10:29:14.310Z,101273.16
2024-05-09T10:31:42.859Z,101278.06
2024-05-09T10:34:20.866Z,101273.66
2024-05-09T10:36:55.121Z,101270.09
2024-05-09T10:39:22.414Z,101271.22
2024-05-09T10:41:49.692Z,101260.94
2024-05-09T10:44:17.260Z,101259.88
2024-05-09T10:46:47.558Z,101248.63
2024-05-09T10:49:14.985Z,101253.03
2024-05-09T10:51:42.269Z,101253.13
2024-05-09T10:54:08.920Z,101248.78
2024-05-09T10:56:35.578Z,101242.63
2024-05-09T10:59:05.636Z,101237.59
2024-05-09T11:01:32.480Z,101235.41
2024-05-09T11:03:59.574Z,101244.41
2024-05-09T11:06:26.978Z,101237.69
2024-05-09T11:08:53.740Z,101231.66
2024-05-09T11:11:20.674Z,101231.88
2024-05-09T11:13:47.343Z,101233.88
2024-05-09T11:16:21.459Z,101234.59
2024-05-09T11:18:56.094Z,101233.34
2024-05-09T11:21:24.143Z,101227.72
2024-05-09T11:23:51.588Z,101224.69
2024-05-09T11:26:19.701Z,101223.22
2024-05-09T11:28:46.564Z,101213.16
2024-05-09T11:31:13.300Z,101208.47
2024-05-09T11:33:43.637Z,101212.44
2024-05-09T11:36:11.759Z,101211.09
2024-05-09T11:38:38.892Z,101208.59
2024-05-09T11:41:06.388Z,101205.03
2024-05-09T11:43:33.438Z,101206.84
2024-05-09T11:46:01.001Z,101195.91
2024-05-09T11:48:28.351Z,101188.94
2024-05-09T11:50:55.501Z,101192.09
2024-05-09T11:53:22.531Z,101198.56
2024-05-09T11:55:49.551Z,101185.63
2024-05-09T11:58:18.068Z,101183.56
2024-05-09T12:00:45.843Z,101185.72
2024-05-09T12:03:12.962Z,101176.66
2024-05-09T12:05:39.812Z,101169.25
2024-05-09T12:08:07.138Z,101162.22
2024-05-09T12:10:35.960Z,101178.41
2024-05-09T12:13:05.849Z,101168.31
2024-05-09T12:15:36.428Z,101170.97
2024-05-09T12:18:04.652Z,101158.00
2024-05-09T12:20:37.467Z,101170.84
2024-05-09T12:23:08.889Z,101165.31
2024-05-09T12:25:37.317Z,101156.22
2024-05-09T12:28:04.335Z,101151.75
2024-05-09T12:30:36.827Z,101149.59
2024-05-09T12:33:13.438Z,101147.69
2024-05-09T12:35:43.237Z,101139.31
2024-05-09T12:38:12.250Z,101153.91
2024-05-09T12:40:39.532Z,101140.47
2024-05-09T12:43:08.221Z,101144.06
2024-05-09T12:45:36.178Z,101141.88
2024-05-09T12:48:04.590Z,101145.41
2024-05-09T12:50:33.467Z,101143.16
2024-05-09T12:53:02.593Z,101147.94
2024-05-09T12:55:34.264Z,101147.41
2024-05-09T12:58:08.343Z,101135.38
2024-05-09T13:00:35.478Z,101137.47
2024-05-09T13:03:02.407Z,101123.72
2024-05-09T13:05:29.703Z,101125.22
2024-05-09T13:07:57.120Z,101118.84
2024-05-09T13:10:31.252Z,101113.88
2024-05-09T13:13:00.566Z,101108.69
2024-05-09T13:15:27.769Z,101110.63
2024-05-09T13:17:57.158Z,101104.56
2024-05-09T13:20:32.075Z,101098.03
2024-05-09T13:23:02.416Z,101093.75
2024-05-09T13:25:29.415Z,101092.72
2024-05-09T13:27:57.041Z,101086.88
2024-05-09T13:30:29.936Z,101086.19
2024-05-09T13:33:06.849Z,101081.16
2024-05-09T13:35:35.426Z,101076.81
2024-05-09T13:38:02.906Z,101073.94
2024-05-09T13:40:33.948Z,101080.13
2024-05-09T13:43:04.069Z,101078.72
2024-05-09T13:45:31.092Z,101071.13
2024-05-09T13:47:58.083Z,101074.59
2024-05-09T13:50:33.183Z,101077.75
2024-05-09T13:53:03.116Z,101071.47
2024-05-09T13:55:29.849Z,101080.00
2024-05-09T13:57:56.839Z,101067.81
2024-05-09T14:00:37.792Z,101064.56
2024-05-09T14:03:10.551Z,101062.53
2024-05-09T14:05:37.419Z,101053.44
2024-05-09T14:08:04.713Z,101048.94
2024-05-09T14:10:32.423Z,101052.81
2024-05-09T14:13:00.438Z,101051.63
2024-05-09T14:15:27.272Z,101036.41
2024-05-09T14:17:54.950Z,101039.16
2024-05-09T14:22:51.362Z,101029.00
2024-05-09T14:25:18.110Z,101038.09
2024-05-09T14:27:45.037Z,101028.19
2024-05-09T14:30:18.417Z,101026.25
2024-05-09T14:32:52.973Z,101020.81
2024-05-09T14:35:19.916Z,101016.50
2024-05-09T14:37:46.679Z,101013.28
2024-05-09T14:40:30.342Z,101014.41
2024-05-09T14:43:03.163Z,101008.38
2024-05-09T14:45:30.175Z,101013.53
2024-05-09T14:47:57.336Z,101015.66
2024-05-09T14:50:34.052Z,101010.38
2024-05-09T14:53:03.844Z,101010.22
2024-05-09T14:55:30.724Z,100998.63
2024-05-09T14:57:57.672Z,100996.28
2024-05-09T15:00:29.012Z,100987.63
2024-05-09T15:03:00.573Z,100995.13
2024-05-09T15:05:27.540Z,100982.28
2024-05-09T15:07:54.452Z,100986.97
2024-05-09T15:10:27.519Z,100980.00
2024-05-09T15:13:01.211Z,100984.72
2024-05-09T15:15:27.929Z,100985.16
2024-05-09T15:17:55.317Z,100981.53
2024-05-09T15:20:31.008Z,100985.00
2024-05-09T15:23:02.235Z,100979.28
2024-05-09T15:25:29.314Z,100971.28
2024-05-09T15:27:56.462Z,100977.16
2024-05-09T15:30:30.356Z,100966.91
2024-05-09T15:33:00.122Z,100971.50
2024-05-09T15:35:27.027Z,100961.81
2024-05-09T15:37:53.855Z,100959.53
2024-05-09T15:40:30.566Z,100961.38
2024-05-09T15:43:04.790Z,100957.94
2024-05-09T15:45:32.042Z,100953.00
2024-05-09T15:47:59.400Z,100958.16
2024-05-09T15:50:36.091Z,100947.47
2024-05-09T15:53:07.231Z,100945.03
2024-05-09T15:55:34.993Z,100952.00
2024-05-09T15:58:02.809Z,100944.88
2024-05-09T16:00:37.340Z,100943.69
2024-05-09T16:03:08.140Z,100940.38
2024-05-09T16:05:35.193Z,100933.28
2024-05-09T16:08:02.442Z,100936.91
2024-05-09T16:10:32.521Z,100929.78
2024-05-09T16:13:01.813Z,100932.19
2024-05-09T16:15:28.843Z,100929.06
2024-05-09T16:17:56.305Z,100932.50
2024-05-09T16:22:53.132Z,100930.06
2024-05-09T16:25:20.038Z,100926.25
2024-05-09T16:27:47.048Z,100922.59
2024-05-09T16:30:21.277Z,100924.03
2024-05-09T16:32:55.159Z,100927.97
2024-05-09T16:35:21.924Z,100927.16
2024-05-09T16:37:49.223Z,100922.56
2024-05-09T16:40:25.129Z,100923.00
2024-05-09T16:43:03.570Z,100920.38
2024-05-09T16:45:30.591Z,100915.78
2024-05-09T16:47:59.053Z,100916.50
2024-05-09T16:50:31.087Z,100916.63
2024-05-09T16:53:00.403Z,100915.19
2024-05-09T16:55:27.527Z,100916.25
2024-05-09T16:57:55.030Z,100920.34
2024-05-09T17:00:34.862Z,100919.03
2024-05-09T17:03:08.706Z,100911.75
2024-05-09T17:05:36.284Z,100910.69
2024-05-09T17:08:03.562Z,100906.41
2024-05-09T17:10:33.646Z,100907.09
2024-05-09T17:13:05.936Z,100900.03
2024-05-09T17:15:34.170Z,100900.34
2024-05-09T17:18:01.811Z,100900.28
2024-05-09T17:20:33.533Z,100895.88
2024-05-09T17:23:03.510Z,100900.47
2024-05-09T17:25:30.175Z,100889.38
2024-05-09T17:27:57.395Z,100898.13
2024-05-09T17:30:31.505Z,100893.28
2024-05-09T17:33:03.192Z,100894.19
2024-05-09T17:35:30.416Z,100882.16
2024-05-09T17:37:58.255Z,100889.50
2024-05-09T17:40:31.399Z,100889.41
2024-05-09T17:43:02.996Z,100890.34
2024-05-09T17:45:29.884Z,100895.13
2024-05-09T17:47:56.846Z,100892.88
2024-05-09T17:50:30.381Z,100903.69
2024-05-09T17:53:01.548Z,100895.50
2024-05-09T17:55:28.621Z,100900.28
2024-05-09T17:57:55.668Z,100897.78
2024-05-09T18:00:32.878Z,100900.59
2024-05-09T18:03:05.711Z,100901.47
2024-05-09T18:05:32.617Z,100898.97
2024-05-09T18:07:59.567Z,100899.44
2024-05-09T18:10:33.372Z,100908.03
2024-05-09T18:13:05.190Z,100905.13
2024-05-09T18:15:32.250Z,100901.22
2024-05-09T18:17:59.362Z,100901.75
2024-05-09T18:20:32.988Z,100901.31
2024-05-09T18:23:08.099Z,100901.09
2024-05-09T18:25:34.929Z,100904.38
2024-05-09T18:28:03.010Z,100899.13
2024-05-09T18:30:34.803Z,100910.81
2024-05-09T18:33:04.983Z,100908.47
2024-05-09T18:35:32.988Z,100910.94
2024-05-09T18:37:59.688Z,100901.03
2024-05-09T18:40:33.306Z,100900.34
2024-05-09T18:43:05.856Z,100910.44
2024-05-09T18:45:34.078Z,100904.91
2024-05-09T18:48:01.117Z,100907.88
2024-05-09T18:50:34.599Z,100911.44
2024-05-09T18:53:12.701Z,100916.19
2024-05-09T18:55:41.300Z,100917.78
2024-05-09T18:58:08.054Z,100910.59
2024-05-09T19:00:38.478Z,100915.16
2024-05-09T19:03:09.708Z,100921.53
2024-05-09T19:05:39.406Z,100924.53
2024-05-09T19:08:07.302Z,100924.31
2024-05-09T19:10:35.580Z,100919.16
2024-05-09T19:13:07.991Z,100925.97
2024-05-09T19:15:38.205Z,100930.41
2024-05-09T19:18:05.588Z,100927.34
2024-05-09T19:20:35.049Z,100930.31
2024-05-09T19:23:03.683Z,100928.50
2024-05-09T19:25:30.613Z,100932.91
2024-05-09T19:27:57.508Z,100946.06
2024-05-09T19:30:32.982Z,100932.19
2024-05-09T19:33:06.052Z,100941.06
2024-05-09T19:35:33.020Z,100945.09
2024-05-09T19:38:00.027Z,100943.13
2024-05-09T19:40:31.486Z,100941.78
2024-05-09T19:43:01.511Z,100954.72
2024-05-09T19:45:28.926Z,100950.00
2024-05-09T19:47:56.239Z,100947.59
2024-05-09T19:50:31.717Z,100946.44
2024-05-09T19:53:06.024Z,100942.13
2024-05-09T19:55:33.218Z,100945.16
2024-05-09T19:58:04.390Z,100947.63
2024-05-09T20:00:36.400Z,100946.47
2024-05-09T20:03:05.545Z,100946.16
2024-05-09T20:05:32.625Z,100953.28
2024-05-09T20:07:59.536Z,100950.84
2024-05-09T20:10:31.476Z,100963.22
2024-05-09T20:13:00.350Z,100960.91
2024-05-09T20:15:27.196Z,100962.63
2024-05-09T20:17:54.316Z,100961.78
2024-05-09T20:20:32.135Z,100963.97
2024-05-09T20:23:04.066Z,100957.59
2024-05-09T20:25:30.806Z,100956.06
2024-05-09T20:27:57.571Z,100964.97
2024-05-09T20:30:31.320Z,100959.28
2024-05-09T20:33:02.707Z,100959.88
2024-05-09T20:35:31.780Z,100958.75
2024-05-09T20:37:58.878Z,100967.31
2024-05-09T20:40:31.778Z,100957.56
2024-05-09T20:43:02.161Z,100955.84
2024-05-09T20:45:28.893Z,100961.59
2024-05-09T20:47:55.872Z,100967.28
2024-05-09T20:50:29.295Z,100964.75
2024-05-09T20:53:03.944Z,100964.84
2024-05-09T20:55:30.818Z,100977.13
2024-05-09T20:57:57.801Z,100975.63
2024-05-09T21:00:34.344Z,100976.97
2024-05-09T21:03:06.911Z,100971.88
2024-05-09T21:05:34.598Z,100968.13
2024-05-09T21:08:01.706Z,100974.13
2024-05-09T21:10:32.703Z,100969.63
2024-05-09T21:13:01.852Z,100979.13
2024-05-09T21:15:29.308Z,100980.25
2024-05-09T21:17:56.180Z,100976.69
2024-05-09T21:20:28.836Z,100972.66
2024-05-09T21:22:58.421Z,100980.03
2024-05-09T21:25:25.254Z,100980.03
2024-05-09T21:27:52.294Z,100985.50
2024-05-09T21:30:31.185Z,100977.34
2024-05-09T21:33:05.728Z,100976.97
2024-05-09T21:35:32.654Z,100976.28
2024-05-09T21:37:59.305Z,100973.81
2024-05-09T21:40:33.357Z,100984.28
2024-05-09T21:43:02.231Z,100977.81
2024-05-09T21:45:28.965Z,100970.16
2024-05-09T21:47:55.933Z,100966.03
2024-05-09T21:50:28.509Z,100975.94
2024-05-09T21:53:02.989Z,100962.69
2024-05-09T21:55:30.015Z,100971.16
2024-05-09T21:57:56.955Z,100968.16
2024-05-09T22:00:32.021Z,100967.13
2024-05-09T22:03:03.476Z,100976.97
2024-05-09T22:05:30.560Z,100979.75
2024-05-09T22:07:57.465Z,100985.09
2024-05-09T22:10:30.666Z,100983.66
2024-05-09T22:13:01.112Z,100987.56
2024-05-09T22:15:27.887Z,100977.63
2024-05-09T22:17:55.711Z,100984.38
2024-05-09T22:20:29.293Z,100982.47
2024-05-09T22:23:03.202Z,100982.44
2024-05-09T22:25:31.138Z,100974.66
2024-05-09T22:27:58.954Z,100986.31
2024-05-09T22:30:34.187Z,100982.16
2024-05-09T22:33:05.665Z,100993.88
2024-05-09T22:35:32.856Z,100991.28
2024-05-09T22:37:59.580Z,100988.31
2024-05-09T22:40:38.129Z,100989.69
2024-05-09T22:43:12.960Z,100995.31
2024-05-09T22:45:39.858Z,100991.34
2024-05-09T22:48:08.275Z,100993.63
2024-05-09T22:50:35.127Z,100984.94
2024-05-09T22:53:01.842Z,100986.28
2024-05-09T22:55:28.860Z,100990.50
2024-05-09T22:57:55.713Z,100986.03
2024-05-09T23:00:30.884Z,100990.97
2024-05-09T23:03:00.719Z,100992.06
2024-05-09T23:05:27.803Z,100979.78
2024-05-09T23:07:54.540Z,100984.41
2024-05-09T23:10:28.192Z,100982.88
2024-05-09T23:13:01.514Z,100972.53
2024-05-09T23:15:28.373Z,100979.53
2024-05-09T23:17:55.377Z,100974.13
2024-05-09T23:20:32.749Z,100977.25
2024-05-09T23:23:04.420Z,100973.78
2024-05-09T23:25:31.029Z,100969.06
2024-05-09T23:27:57.774Z,100975.72
2024-05-09T23:30:33.594Z,100971.25
2024-05-09T23:33:05.951Z,100968.13
2024-05-09T23:35:32.786Z,100968.06
2024-05-09T23:37:59.610Z,100961.56
2024-05-09T23:40:37.036Z,100967.38
2024-05-09T23:43:10.407Z,100960.56
2024-05-09T23:45:37.513Z,100964.09
2024-05-09T23:48:04.931Z,100966.56
2024-05-09T23:50:36.105Z,100961.03
2024-05-09T23:53:06.315Z,100966.41
2024-05-09T23:55:33.957Z,100962.16
2024-05-09T23:58:00.897Z,100961.63
